Clyde, Texas
Current Conditions -  °F | °C
As of 4:52 PM on Friday 28 Nov 2014 (Local Time) from KABI Reporting Station
Clear Clear  
Wind Chill: 21°   Ceiling: Unl
Heat Index: 21°   Visibility: 10mi
Dew Point:   Wind: 18mph
Humidity: 31%   Direction: 200°SSW
Pressure: 30.01"   Gusts: NA
Location:  32.41°N, 99.49°W
Report Text: KABI 282252Z 20016KT 10SM CLR 21/03 A3001 RMK AO2 PK WND 20027/2212 SLP149 T02110033
Loading
Personal Weather Stations






























Interactive Weather Map New forecast layout! Learn more

10-Day Weather Forecast

Advertisements
Track Severe Weather on mobile